• Join FlightAware (Why Join?)
  • Login
  • US Flag 
09:42PM EDT


 

Airport Tracker/Info


-or-


 

Live Flight TrackerFlight Track Log ✈ QFA1074 ✈ 10-Feb-2014 ✈ YPPH / PER - YBRM / BME

Flight Track Log - Related Links

Times and Time Zones

All times are in EST time to prevent confusion due to time zone crossing. See the QFA1074 flight status page for this flight to view local times or setup timezone preferences in your user account.

Time Position Orientation Groundspeed Altitude Reporting Facility
EST Latitude Longitude Course Direction KTS MPH feet Rate Location/Type
09:01PM -31.9363 115.9662 184° South 110 127  Level FlightAware ADS-B (YPPH / PER)
09:02PM -31.9719 115.9555 184° South 167 192 1,400 1,680 Climbing Aus ATC (RADAR)
09:02PM -31.9883 115.9505 184° South 203 234 2,000 1,860 Climbing FlightAware ADS-B (YPPH / PER)
09:03PM -32.0101 115.9502 181° South 219 252 2,700 2,100 Climbing FlightAware ADS-B (YPPH / PER)
09:03PM -32.0268 115.9604 153° Southeast 224 258 3,500 1,860 Climbing FlightAware ADS-B (YPPH / PER)
09:03PM -32.0412 115.9909 119° Southeast 262 302 4,100 1,680 Climbing FlightAware ADS-B (YPPH / PER)
09:04PM -32.0485 116.0200 106° East 274 315 4,800 2,340 Climbing FlightAware ADS-B (YPPH / PER)
09:04PM -32.0555 116.0509 105° East 287 330 5,700 2,520 Climbing FlightAware ADS-B (YPPH / PER)
09:05PM -32.0647 116.0931 104° East 293 337 6,900 2,460 Climbing FlightAware ADS-B (YPPH / PER)
09:05PM -32.0718 116.1249 105° East 303 349 7,700 2,220 Climbing FlightAware ADS-B (YPPH / PER)
09:05PM -32.0770 116.1479 105° East 314 361 8,200 2,100 Climbing FlightAware ADS-B (YPPH / PER)
09:06PM -32.0848 116.2066 99° East 316 364 9,400 2,400 Climbing FlightAware ADS-B (YPPH / PER)
09:06PM -32.0740 116.2344 66° East 300 345 10,300 1,680 Climbing FlightAware ADS-B (YPPH / PER)
09:07PM -32.0265 116.2936 47° Northeast 335 386 11,300 1,740 Climbing FlightAware ADS-B (YPPH / PER)
09:07PM -31.9834 116.3480 47° Northeast 352 405 12,900 2,220 Climbing FlightAware ADS-B (YPPH / PER)
09:08PM -31.9311 116.4101 45° Northeast 367 422 14,500 2,040 Climbing FlightAware ADS-B (YPPH / PER)
09:09PM -31.8977 116.4331 30° Northeast 370 426 15,200 2,400 Climbing FlightAware ADS-B (YPPH / PER)
09:09PM -31.8226 116.4732 24° Northeast 372 428 17,300 2,460 Climbing FlightAware ADS-B (YPPH / PER)
09:10PM -31.7489 116.5128 25° Northeast 374 430 19,100 1,860 Climbing FlightAware ADS-B (YPPH / PER)
09:11PM -31.6788 116.5504 25° Northeast 396 456 20,100 1,560 Climbing FlightAware ADS-B (YPPH / PER)
09:12PM -31.5971 116.5943 25° Northeast 408 470 21,500 1,620 Climbing FlightAware ADS-B (YPPH / PER)
09:12PM -31.5384 116.6255 25° Northeast 418 481 22,300 1,620 Climbing Aus ATC (RADAR)
09:12PM -31.5201 116.6354 25° Northeast 426 490 22,700 1,800 Climbing FlightAware ADS-B (YPPH / PER)
09:13PM -31.4511 116.6723 25° Northeast 427 491 23,800 1,740 Climbing FlightAware ADS-B (YPPH / PER)
09:14PM -31.3614 116.7202 25° Northeast 440 506 25,200 1,560 Climbing FlightAware ADS-B (YPPH / PER)
09:14PM -31.2908 116.7581 25° Northeast 439 505 26,100 1,560 Climbing Aus ATC (RADAR)
09:15PM -31.2778 116.7646 25° Northeast 443 510 26,400 1,320 Climbing FlightAware ADS-B (YPPH / PER)
09:15PM -31.1971 116.8075 24° Northeast 448 516 27,200 1,020 Climbing FlightAware ADS-B (YPPH / PER)
09:16PM -31.1289 116.8439 24° Northeast 456 525 27,800 1,200 Climbing Aus ATC (RADAR)
09:16PM -31.1111 116.8531 24° Northeast 461 531 28,100 1,260 Climbing FlightAware ADS-B (YPPH / PER)
09:17PM -31.0166 116.9030 24° Northeast 462 532 29,000 960 Climbing FlightAware ADS-B (YPPH / PER)
09:17PM -30.9520 116.9374 24° Northeast 469 540 29,400 1,140 Climbing Aus ATC (RADAR)
09:18PM -30.9345 116.9462 24° Northeast 474 545 29,800 1,740 Climbing FlightAware ADS-B (YPPH / PER)
09:18PM -30.8438 116.9939 24° Northeast 463 533 31,000 1,320 Climbing FlightAware ADS-B (YPPH / PER)
09:19PM -30.7634 117.0361 24° Northeast 466 536 31,800 1,380 Climbing Aus ATC (RADAR)
09:19PM -30.7512 117.0427 24° Northeast 460 529 32,100 1,560 Climbing FlightAware ADS-B (YPPH / PER)
09:20PM -30.6661 117.0873 24° Northeast 462 532 33,100 1,260 Climbing FlightAware ADS-B (YPPH / PER)
09:21PM -30.5784 117.1334 24° Northeast 459 528 34,000 1,080 Climbing FlightAware ADS-B (YPPH / PER)
09:21PM -30.4898 117.1802 24° Northeast 460 529 34,800 660 Climbing FlightAware ADS-B (YPPH / PER)
09:22PM -30.4094 117.2224 24° Northeast 461 531 35,000  Climbing FlightAware ADS-B (YPPH / PER)
09:23PM -30.3357 117.2599 24° Northeast 459 528 34,800  Descending Aus ATC (RADAR)
09:23PM -30.3208 117.2684 24° Northeast 460 529 35,000 180 Climbing FlightAware ADS-B (YPPH / PER)
09:24PM -30.2311 117.3149 24° Northeast 461 531 35,000 -180 Level FlightAware ADS-B (YPPH / PER)
09:24PM -30.1520 117.3565 24° Northeast 459 528 34,800  Descending Aus ATC (RADAR)
09:24PM -30.1449 117.3593 24° Northeast 460 529 35,000 120 Climbing FlightAware ADS-B (YPPH / PER)
09:25PM -30.0833 117.3907 24° Northeast 462 532 34,900  Descending Aus ATC (RADAR)
09:25PM -30.0613 117.4024 24° Northeast 462 532 35,000 60 Climbing FlightAware ADS-B (YPPH / PER)
09:26PM -29.9686 117.4503 24° Northeast 457 526 35,000  Level FlightAware ADS-B (YPPH / PER)
09:26PM -29.8896 117.4911 24° Northeast 459 528 35,000  Level FlightAware ADS-B (YPPH / PER)
09:27PM -29.7967 117.5389 24° Northeast 459 528 35,000 -180 Level FlightAware ADS-B (YPPH / PER)
09:28PM -29.7403 117.5678 24° Northeast 466 536 34,800  Descending Aus ATC (RADAR)
09:28PM -29.7045 117.5863 24° Northeast 458 527 35,000 180 Climbing FlightAware ADS-B (YPPH / PER)
09:29PM -29.6226 117.6283 24° Northeast 459 528 35,000 -120 Level FlightAware ADS-B (YPPH / PER)
09:29PM -29.5534 117.6632 24° Northeast 464 534 34,900  Descending Aus ATC (RADAR)
09:29PM -29.5326 117.6743 24° Northeast 458 527 35,000 60 Climbing FlightAware ADS-B (YPPH / PER)
09:30PM -29.4388 117.7222 24° Northeast 459 528 35,000  Level FlightAware ADS-B (YPPH / PER)
09:31PM -29.3575 117.7636 24° Northeast 458 527 35,000  Level FlightAware ADS-B (YPPH / PER)
09:32PM -29.2689 117.8088 24° Northeast 459 528 35,000 -120 Level FlightAware ADS-B (YPPH / PER)
09:32PM -29.1883 117.8467 24° Northeast 464 534 34,900  Descending Aus ATC (RADAR)
09:32PM -29.1775 117.8553 24° Northeast 462 532 35,000 120 Climbing FlightAware ADS-B (YPPH / PER)
09:33PM -29.0940 117.8978 24° Northeast 458 527 35,000  Level FlightAware ADS-B (YPPH / PER)
09:34PM -29.0071 117.9417 24° Northeast 455 524 35,000  Level FlightAware ADS-B (YPPH / PER)
09:35PM -28.9183 117.9865 24° Northeast 454 522 35,000  Level FlightAware ADS-B (YPPH / PER)
09:35PM -28.8398 118.0260 24° Northeast 454 522 35,000 -120 Level FlightAware ADS-B (YPPH / PER)
09:36PM -28.7254 118.0779 24° Northeast 450 518 34,900 -60 Descending Aus ATC (RADAR)
09:37PM -28.6393 118.1210 24° Northeast 450 518 34,900  Level Aus ATC (RADAR)
09:38PM -28.5914 118.1443 23° Northeast 450 518 34,900  Level Aus ATC (RADAR)
09:38PM -28.5239 118.1765 23° Northeast 451 519 34,900  Level Aus ATC (RADAR)
09:39PM -28.3995 118.2374 23° Northeast 449 517 34,900  Level Aus ATC (RADAR)
09:40PM -28.3620 118.2575 25° Northeast 450 518 34,900  Level Aus ATC (RADAR)
09:40PM -28.3057 118.2874 25° Northeast 451 519 34,900  Level Aus ATC (RADAR)
09:53PM -26.8445 118.9363 201° Southwest 484 557 34,900  Level Aus ATC (RADAR)
09:57PM -26.3691 119.1372 21° North 450 518 34,900  Level Aus ATC (RADAR)
09:57PM -26.2997 119.1730 25° Northeast 460 529 34,900  Level Aus ATC (RADAR)
09:59PM -26.0568 119.2779 21° North 574 661 34,900 -60 Level Aus ATC (RADAR)
10:00PM -26.0130 119.2931 17° North 475 547 34,800 -120 Descending Aus ATC (RADAR)
10:00PM -25.9648 119.3151 22° Northeast 453 521 34,800 60 Level Aus ATC (RADAR)
10:01PM -25.8965 119.3442 21° North 453 521 34,900  Climbing Aus ATC (RADAR)
10:02PM -25.8186 119.3774 21° North 452 520 34,800  Descending Aus ATC (RADAR)
10:02PM -25.7514 119.4043 20° North 446 513 34,900 60 Climbing Aus ATC (RADAR)
10:03PM -25.6846 119.4307 20° North 441 507 34,900  Level Aus ATC (RADAR)
10:03PM -25.6166 119.4592 21° North 444 511 34,900 -120 Level Aus ATC (RADAR)
10:04PM -25.5383 119.4923 21° North 450 518 34,800 -60 Descending Aus ATC (RADAR)
10:05PM -25.4104 119.5455 21° North 452 520 34,800  Level Aus ATC (RADAR)
10:05PM -25.3710 119.5622 21° North 453 521 34,800  Level Aus ATC (RADAR)
10:06PM -25.2947 119.5926 20° North 444 511 34,800  Level Aus ATC (RADAR)
10:07PM -25.2057 119.6314 22° Northeast 452 520 34,800  Level Aus ATC (RADAR)
10:07PM -25.1383 119.6591 20° North 448 516 34,800  Level Aus ATC (RADAR)
10:08PM -25.0724 119.6854 20° North 439 505 34,800  Level Aus ATC (RADAR)
10:09PM -25.0055 119.7130 21° North 439 505 34,800  Level Aus ATC (RADAR)
10:09PM -24.9372 119.7418 21° North 445 512 34,800  Level Aus ATC (RADAR)
10:10PM -24.7931 119.8008 20° North 441 507 34,800  Level Aus ATC (RADAR)
10:11PM -24.7460 119.8197 20° North 437 503 34,800  Level Aus ATC (RADAR)
10:11PM -24.6686 119.8518 21° North 442 509 34,800  Level Aus ATC (RADAR)
10:12PM -24.6001 119.8804 21° North 447 514 34,800  Level Aus ATC (RADAR)
10:13PM -24.5238 119.9115 20° North 442 509 34,800  Level Aus ATC (RADAR)
10:13PM -24.4480 119.9418 20° North 437 503 34,800  Level Aus ATC (RADAR)
10:14PM -24.3902 119.9657 21° North 439 505 34,800  Level Aus ATC (RADAR)
10:15PM -24.2742 120.0134 21° North 444 511 34,800  Level Aus ATC (RADAR)
10:15PM -24.2278 120.0322 20° North 436 502 34,800  Level Aus ATC (RADAR)
10:16PM -24.1788 120.0521 20° North 442 509 34,800  Level Aus ATC (RADAR)
10:16PM -24.1126 120.0789 20° North 437 503 34,800  Level Aus ATC (RADAR)
10:17PM -24.0170 120.1181 21° North 438 504 34,800  Level Aus ATC (RADAR)
10:18PM -23.9509 120.1450 20° North 436 502 34,800  Level Aus ATC (RADAR)
10:18PM -23.8625 120.1805 20° North 446 513 34,800  Level Aus ATC (RADAR)
10:19PM -23.8047 120.2041 20° North 444 511 34,800  Level Aus ATC (RADAR)
10:20PM -23.7018 120.2467 21° North 426 490 34,800  Level Aus ATC (RADAR)
10:21PM -23.6221 120.2784 20° North 425 489 34,800  Level Aus ATC (RADAR)
10:21PM -23.5890 120.2907 19° North 452 520 34,800  Level Aus ATC (RADAR)
10:21PM -23.5241 120.3176 21° North 441 507 34,800  Level Aus ATC (RADAR)
10:22PM -23.4344 120.3530 20° North 452 520 34,800  Level Aus ATC (RADAR)
10:23PM -23.3596 120.3840 21° North 441 507 34,800  Level Aus ATC (RADAR)
10:24PM -23.2611 120.4229 20° North 449 517 34,800  Level Aus ATC (RADAR)
10:24PM -23.2307 120.4346 20° North 454 522 34,800  Level Aus ATC (RADAR)
10:24PM -23.1646 120.4616 21° North 442 509 34,800  Level Aus ATC (RADAR)
10:26PM -23.0303 120.5159 20° North 441 507 34,800  Level Aus ATC (RADAR)
10:26PM -22.9822 120.5353 20° North 442 509 34,800  Level Aus ATC (RADAR)
10:27PM -22.9137 120.5622 20° North 444 511 34,800  Level Aus ATC (RADAR)
10:27PM -22.8460 120.5892 20° North 443 510 34,800  Level Aus ATC (RADAR)
10:28PM -22.7777 120.6162 20° North 445 512 34,800  Level Aus ATC (RADAR)
10:29PM -22.6818 120.6547 20° North 441 507 34,800  Level Aus ATC (RADAR)
10:29PM -22.6334 120.6741 20° North 442 509 34,800  Level Aus ATC (RADAR)
10:30PM -22.5653 120.7007 20° North 443 510 34,800  Level Aus ATC (RADAR)
10:30PM -22.4690 120.7389 20° North 440 506 34,800  Level Aus ATC (RADAR)
10:31PM -22.4210 120.7579 20° North 441 507 34,800  Level Aus ATC (RADAR)
10:31PM -22.3538 120.7847 20° North 440 506 34,800 600 Level Aus ATC (RADAR)
10:32PM -22.2639 120.8107 15° North 429 494 35,600 900 Climbing Aus ATC (RADAR)
10:33PM -22.1917 120.8100 359° North 419 482 36,000 660 Climbing Aus ATC (RADAR)
10:33PM -22.1166 120.8110 North 440 506 36,400 600 Climbing Aus ATC (RADAR)
10:34PM -22.0442 120.8072 357° North 434 499 36,700 240 Climbing Aus ATC (RADAR)
10:35PM -21.9748 120.7878 345° North 423 487 36,700  Level Aus ATC (RADAR)
10:36PM -21.7974 120.7520 349° North 441 507 36,700  Level Aus ATC (RADAR)
10:36PM -21.7460 120.7416 349° North 440 506 36,700  Level Aus ATC (RADAR)
10:37PM -21.6737 120.7271 349° North 441 507 36,700 -120 Level Aus ATC (RADAR)
10:38PM -21.5812 120.7091 350° North 440 506 36,600  Descending Aus ATC (RADAR)
10:38PM -21.5091 120.6948 350° North 440 506 36,700  Climbing Aus ATC (RADAR)
10:39PM -21.4161 120.6759 349° North 440 506 36,600 -120 Descending Aus ATC (RADAR)
10:39PM -21.3641 120.6646 349° North 441 507 36,600 60 Level Aus ATC (RADAR)
10:41PM -21.2298 120.6344 348° North 441 507 36,700 60 Climbing Aus ATC (RADAR)
10:41PM -21.1770 120.6221 348° North 444 511 36,700  Level Aus ATC (RADAR)
10:41PM -21.1246 120.6085 346° North 445 512 36,700  Level Aus ATC (RADAR)
10:42PM -21.0572 120.5787 338° Northwest 430 495 36,700  Level Aus ATC (RADAR)
10:43PM -20.9542 120.5632 352° North 508 585 36,700 -120 Level Aus ATC (RADAR)
10:43PM -20.8794 120.5865 16° North 509 586 36,600  Descending Aus ATC (RADAR)
10:44PM -20.8114 120.6151 21° North 482 555 36,700 120 Climbing Aus ATC (RADAR)
10:46PM -20.6494 120.7082 28° Northeast  Level Estimated
10:52PM -19.9486 121.2283 34° Northeast 9,300  Level Aus ATC (Calculated)
10:53PM -19.8543 121.2948 34° Northeast 9,300  Level Aus ATC (Calculated)
10:53PM -19.7659 121.3571 34° Northeast 9,300  Level Aus ATC (Calculated)
10:54PM -19.6831 121.4154 350° North 9,300  Level Aus ATC (Calculated)
10:55PM -19.6564 121.4103 25° Northeast  Level Estimated
10:55PM -19.6053 121.4700 North 9,300  Level Aus ATC (Calculated)
10:56PM -19.5562 121.4756 24° Northeast  Level Estimated
10:56PM -19.5325 121.5212 33° Northeast 9,300  Level Aus ATC (Calculated)
10:57PM -19.3274 121.6648 253° West 9,300  Level Aus ATC (Calculated)
10:58PM -19.3449 121.6059 23° Northeast  Level Estimated
10:59PM -19.1979 121.7183 21° North  Level Estimated
10:59PM -19.1051 121.8200 281° West 9,300  Level Aus ATC (Calculated)
11:00PM -19.0943 121.7611 21° North  Level Estimated
11:01PM -18.9822 121.8639 19° North  Level Estimated
11:01PM -18.9383 121.9361 33° Northeast 9,300  Level Aus ATC (Calculated)
11:02PM -18.8132 122.0230 33° Northeast 9,300  Level Aus ATC (Calculated)
11:03PM -18.7193 122.0882 360° North 9,300  Level Aus ATC (Calculated)
11:03PM -18.7193 122.0882 10° North 9,300  Level Aus ATC (Calculated)
11:05PM -18.5933 122.1116 10° North  Level Estimated
11:05PM -18.4375 122.2831 252° West 9,300  Level Aus ATC (Calculated)
11:06PM -18.4838 122.1319 10° North  Level Estimated
11:07PM -18.2973 122.2684 354° North  Level Estimated
11:08PM -18.1866 122.2569 354° North  Level Estimated
11:08PM -18.2533 122.2651 360° North 500  Level Aus ATC (Calculated)
11:08PM -18.2533 122.2651 354° North 500  Level Aus ATC (Calculated)
11:10PM -18.1316 122.2519 354° North  Level Estimated
11:11PM -18.0210 122.2399 354° North  Level Estimated
11:11PM -18.0691 122.2472 353° North 500  Level Aus ATC (Calculated)
11:12PM -17.9447 122.2317 354° North  Level Estimated
11:12PM -18.0077 122.2413 352° North 500  Level Aus ATC (Calculated)
11:14PM -17.9447 122.2317 352° North  Level Estimated
11:14PM -17.9496 122.2277 38° Northeast  Level Aus ATC (Calculated)
11:15PM -17.9447 122.2317 235° Southwest  Level Estimated
11:16PM -17.9447 122.2317 38° Northeast  Level Estimated
11:17PM -17.9447 122.2317 235° Southwest  Level Estimated
11:18PM -17.9447 122.2317 235° Southwest  Level Estimated
11:19PM -17.9447 122.2317 235° Southwest  Level Estimated
11:20PM -17.9447 122.2317 235° Southwest  Level Estimated
11:21PM -17.9447 122.2317 235° Southwest  Level Estimated
11:22PM -17.9447 122.2317 235° Southwest  Level Estimated
11:23PM -17.9447 122.2317 235° Southwest  Level Estimated
11:24PM -17.9447 122.2317 235° Southwest  Level Estimated
11:25PM -17.9447 122.2317 235° Southwest  Level Estimated
11:26PM -17.9447 122.2317 235° Southwest  Level Estimated
11:27PM -17.9447 122.2317 235° Southwest  Level Estimated
11:28PM -17.9447 122.2317 235° Southwest  Level Estimated
11:29PM -17.9447 122.2317 235° Southwest  Level Estimated
11:30PM -17.9447 122.2317 235° Southwest  Level Estimated
11:31PM -17.9447 122.2317 235° Southwest  Level Estimated